Mont Joli, Mont-Joli Airport (CYYY)

NameMont-Joli Airport
CityMont Joli
CountryCanada
ICAOCYYY
IATAYYY
Altitude52 m
CoordinatesGoogle Map
Live Air TrafficLiveATC.net
METARCYYY 240200Z 19002KT 30SM OVC085 17/13 A2983 RMK AC8 SLP105 DENSITY ALT 600FT
2019-07-24 02:00:00 Wind: South (190°) 1.03 m/s - Visibility: 48280.2 m - Temperature: 17 °C - Dew point: 13 °C - Humidity: 77.5% - Pressure: 1010.16 hPa

Sorry, no flights used the airport in this database.